sensor_id;sensor_type;location;lat;lon;timestamp;P1;durP1;ratioP1;P2;durP2;ratioP2
69569;SDS011;56781;42.292;23.146;2024-02-21T00:01:23;11.18;;;4.28;;
69569;SDS011;56781;42.292;23.146;2024-02-21T00:03:54;11.38;;;5.38;;
69569;SDS011;56781;42.292;23.146;2024-02-21T00:06:22;10.02;;;4.60;;
69569;SDS011;56781;42.292;23.146;2024-02-21T00:08:52;11.50;;;5.72;;
69569;SDS011;56781;42.292;23.146;2024-02-21T00:11:21;12.87;;;6.00;;
69569;SDS011;56781;42.292;23.146;2024-02-21T00:13:50;13.45;;;6.20;;
69569;SDS011;56781;42.292;23.146;2024-02-21T00:16:19;13.63;;;6.00;;
69569;SDS011;56781;42.292;23.146;2024-02-21T00:18:48;11.63;;;6.03;;
69569;SDS011;56781;42.292;23.146;2024-02-21T00:21:18;29.70;;;9.10;;
69569;SDS011;56781;42.292;23.146;2024-02-21T00:23:46;23.20;;;9.53;;
69569;SDS011;56781;42.292;23.146;2024-02-21T00:26:17;22.00;;;8.82;;
69569;SDS011;56781;42.292;23.146;2024-02-21T00:28:46;37.10;;;11.65;;
69569;SDS011;56781;42.292;23.146;2024-02-21T00:31:14;25.52;;;7.90;;
69569;SDS011;56781;42.292;23.146;2024-02-21T00:33:43;35.20;;;11.32;;
69569;SDS011;56781;42.292;23.146;2024-02-21T00:36:11;33.70;;;10.87;;
69569;SDS011;56781;42.292;23.146;2024-02-21T00:38:43;21.50;;;9.40;;
69569;SDS011;56781;42.292;23.146;2024-02-21T00:41:11;20.77;;;9.50;;
69569;SDS011;56781;42.292;23.146;2024-02-21T00:43:40;21.60;;;9.50;;
69569;SDS011;56781;42.292;23.146;2024-02-21T00:46:09;21.83;;;10.02;;
69569;SDS011;56781;42.292;23.146;2024-02-21T00:48:38;43.17;;;14.53;;
69569;SDS011;56781;42.292;23.146;2024-02-21T00:51:07;25.65;;;9.93;;
69569;SDS011;56781;42.292;23.146;2024-02-21T00:53:35;39.45;;;12.60;;
69569;SDS011;56781;42.292;23.146;2024-02-21T00:56:07;37.70;;;13.27;;
69569;SDS011;56781;42.292;23.146;2024-02-21T00:58:35;19.48;;;9.00;;
69569;SDS011;56781;42.292;23.146;2024-02-21T01:01:04;21.20;;;8.40;;
69569;SDS011;56781;42.292;23.146;2024-02-21T01:03:33;17.52;;;8.32;;
69569;SDS011;56781;42.292;23.146;2024-02-21T01:06:01;19.75;;;8.70;;
69569;SDS011;56781;42.292;23.146;2024-02-21T01:08:30;19.60;;;8.52;;
69569;SDS011;56781;42.292;23.146;2024-02-21T01:10:59;20.30;;;8.80;;
69569;SDS011;56781;42.292;23.146;2024-02-21T01:13:29;18.73;;;8.30;;
69569;SDS011;56781;42.292;23.146;2024-02-21T01:15:58;19.63;;;8.15;;
69569;SDS011;56781;42.292;23.146;2024-02-21T01:18:26;17.00;;;8.73;;
69569;SDS011;56781;42.292;23.146;2024-02-21T01:20:55;36.22;;;13.38;;
69569;SDS011;56781;42.292;23.146;2024-02-21T01:23:23;18.88;;;7.88;;
69569;SDS011;56781;42.292;23.146;2024-02-21T01:25:52;22.43;;;8.50;;
69569;SDS011;56781;42.292;23.146;2024-02-21T01:28:22;17.92;;;8.00;;
69569;SDS011;56781;42.292;23.146;2024-02-21T01:30:52;17.77;;;8.23;;
69569;SDS011;56781;42.292;23.146;2024-02-21T01:33:21;17.27;;;7.47;;
69569;SDS011;56781;42.292;23.146;2024-02-21T01:35:50;19.95;;;8.70;;
69569;SDS011;56781;42.292;23.146;2024-02-21T01:38:19;18.27;;;7.87;;
69569;SDS011;56781;42.292;23.146;2024-02-21T01:40:47;18.85;;;8.15;;
69569;SDS011;56781;42.292;23.146;2024-02-21T01:43:16;15.63;;;7.20;;
69569;SDS011;56781;42.292;23.146;2024-02-21T01:45:48;15.60;;;7.47;;
69569;SDS011;56781;42.292;23.146;2024-02-21T01:48:20;13.68;;;7.00;;
69569;SDS011;56781;42.292;23.146;2024-02-21T01:50:50;15.97;;;7.27;;
69569;SDS011;56781;42.292;23.146;2024-02-21T01:53:21;16.05;;;7.53;;
69569;SDS011;56781;42.292;23.146;2024-02-21T01:55:51;17.30;;;7.28;;
69569;SDS011;56781;42.292;23.146;2024-02-21T01:58:20;17.23;;;7.40;;
69569;SDS011;56781;42.292;23.146;2024-02-21T02:00:49;17.42;;;7.13;;
69569;SDS011;56781;42.292;23.146;2024-02-21T02:03:20;17.70;;;7.33;;
69569;SDS011;56781;42.292;23.146;2024-02-21T02:05:49;15.80;;;7.57;;
69569;SDS011;56781;42.292;23.146;2024-02-21T02:08:18;14.98;;;7.40;;
69569;SDS011;56781;42.292;23.146;2024-02-21T02:10:48;17.17;;;7.57;;
69569;SDS011;56781;42.292;23.146;2024-02-21T02:13:17;20.58;;;7.43;;
69569;SDS011;56781;42.292;23.146;2024-02-21T02:15:47;15.00;;;6.73;;
69569;SDS011;56781;42.292;23.146;2024-02-21T02:18:17;13.93;;;6.10;;
69569;SDS011;56781;42.292;23.146;2024-02-21T02:20:50;13.52;;;5.75;;
69569;SDS011;56781;42.292;23.146;2024-02-21T02:23:30;14.93;;;5.93;;
69569;SDS011;56781;42.292;23.146;2024-02-21T02:25:59;13.65;;;6.10;;
69569;SDS011;56781;42.292;23.146;2024-02-21T02:28:28;12.10;;;5.70;;
69569;SDS011;56781;42.292;23.146;2024-02-21T02:30:57;12.73;;;6.35;;
69569;SDS011;56781;42.292;23.146;2024-02-21T02:33:43;16.27;;;6.68;;
69569;SDS011;56781;42.292;23.146;2024-02-21T02:36:29;13.70;;;6.57;;
69569;SDS011;56781;42.292;23.146;2024-02-21T02:39:16;19.02;;;7.63;;
69569;SDS011;56781;42.292;23.146;2024-02-21T02:42:02;15.90;;;7.33;;
69569;SDS011;56781;42.292;23.146;2024-02-21T02:44:48;17.88;;;7.80;;
69569;SDS011;56781;42.292;23.146;2024-02-21T02:47:33;17.45;;;7.97;;
69569;SDS011;56781;42.292;23.146;2024-02-21T02:50:03;18.67;;;8.02;;
69569;SDS011;56781;42.292;23.146;2024-02-21T02:52:32;19.75;;;8.45;;
69569;SDS011;56781;42.292;23.146;2024-02-21T02:55:02;19.37;;;8.23;;
69569;SDS011;56781;42.292;23.146;2024-02-21T02:57:31;21.63;;;9.38;;
69569;SDS011;56781;42.292;23.146;2024-02-21T03:00:00;20.98;;;9.82;;
69569;SDS011;56781;42.292;23.146;2024-02-21T03:02:30;19.02;;;8.80;;
69569;SDS011;56781;42.292;23.146;2024-02-21T03:04:59;18.33;;;8.93;;
69569;SDS011;56781;42.292;23.146;2024-02-21T03:07:28;19.20;;;8.20;;
69569;SDS011;56781;42.292;23.146;2024-02-21T03:09:57;20.75;;;8.57;;
69569;SDS011;56781;42.292;23.146;2024-02-21T03:12:27;18.55;;;8.32;;
69569;SDS011;56781;42.292;23.146;2024-02-21T03:14:56;20.67;;;9.63;;
69569;SDS011;56781;42.292;23.146;2024-02-21T03:17:24;21.77;;;10.02;;
69569;SDS011;56781;42.292;23.146;2024-02-21T03:19:54;27.07;;;12.00;;
69569;SDS011;56781;42.292;23.146;2024-02-21T03:22:24;21.30;;;9.57;;
69569;SDS011;56781;42.292;23.146;2024-02-21T03:24:53;22.50;;;10.23;;
69569;SDS011;56781;42.292;23.146;2024-02-21T03:27:21;16.92;;;6.63;;
69569;SDS011;56781;42.292;23.146;2024-02-21T03:29:51;11.25;;;5.10;;
69569;SDS011;56781;42.292;23.146;2024-02-21T03:32:20;11.90;;;5.70;;
69569;SDS011;56781;42.292;23.146;2024-02-21T03:34:49;15.80;;;7.40;;
69569;SDS011;56781;42.292;23.146;2024-02-21T03:37:18;15.60;;;6.35;;
69569;SDS011;56781;42.292;23.146;2024-02-21T03:39:46;11.07;;;5.40;;
69569;SDS011;56781;42.292;23.146;2024-02-21T03:42:15;11.70;;;5.85;;
69569;SDS011;56781;42.292;23.146;2024-02-21T03:44:43;12.10;;;5.17;;
69569;SDS011;56781;42.292;23.146;2024-02-21T03:47:14;11.13;;;4.93;;
69569;SDS011;56781;42.292;23.146;2024-02-21T03:49:42;11.30;;;5.75;;
69569;SDS011;56781;42.292;23.146;2024-02-21T03:52:11;12.90;;;5.82;;
69569;SDS011;56781;42.292;23.146;2024-02-21T03:54:39;12.80;;;5.90;;
69569;SDS011;56781;42.292;23.146;2024-02-21T03:57:08;11.87;;;6.23;;
69569;SDS011;56781;42.292;23.146;2024-02-21T03:59:37;20.52;;;10.40;;
69569;SDS011;56781;42.292;23.146;2024-02-21T04:02:10;13.35;;;6.63;;
69569;SDS011;56781;42.292;23.146;2024-02-21T04:04:44;11.05;;;4.93;;
69569;SDS011;56781;42.292;23.146;2024-02-21T04:07:14;11.30;;;5.03;;
69569;SDS011;56781;42.292;23.146;2024-02-21T04:09:43;10.23;;;4.87;;
69569;SDS011;56781;42.292;23.146;2024-02-21T04:12:12;10.90;;;5.13;;
69569;SDS011;56781;42.292;23.146;2024-02-21T04:14:41;10.27;;;4.63;;
69569;SDS011;56781;42.292;23.146;2024-02-21T04:17:13;10.27;;;5.10;;
69569;SDS011;56781;42.292;23.146;2024-02-21T04:19:41;10.82;;;5.13;;
69569;SDS011;56781;42.292;23.146;2024-02-21T04:22:12;12.93;;;5.67;;
69569;SDS011;56781;42.292;23.146;2024-02-21T04:24:41;11.27;;;4.88;;
69569;SDS011;56781;42.292;23.146;2024-02-21T04:27:09;19.33;;;7.72;;
69569;SDS011;56781;42.292;23.146;2024-02-21T04:29:38;34.33;;;15.15;;
69569;SDS011;56781;42.292;23.146;2024-02-21T04:32:07;27.85;;;13.85;;
69569;SDS011;56781;42.292;23.146;2024-02-21T04:34:36;20.40;;;10.43;;
69569;SDS011;56781;42.292;23.146;2024-02-21T04:37:07;13.45;;;7.03;;
69569;SDS011;56781;42.292;23.146;2024-02-21T04:39:36;42.33;;;12.05;;
69569;SDS011;56781;42.292;23.146;2024-02-21T04:42:04;46.78;;;13.35;;
69569;SDS011;56781;42.292;23.146;2024-02-21T04:44:33;31.60;;;12.85;;
69569;SDS011;56781;42.292;23.146;2024-02-21T04:47:02;18.53;;;8.20;;
69569;SDS011;56781;42.292;23.146;2024-02-21T04:49:31;19.30;;;8.68;;
69569;SDS011;56781;42.292;23.146;2024-02-21T04:51:59;15.07;;;7.22;;
69569;SDS011;56781;42.292;23.146;2024-02-21T04:54:30;15.88;;;7.93;;
69569;SDS011;56781;42.292;23.146;2024-02-21T04:56:58;16.92;;;6.72;;
69569;SDS011;56781;42.292;23.146;2024-02-21T04:59:27;19.77;;;7.87;;
69569;SDS011;56781;42.292;23.146;2024-02-21T05:01:56;19.58;;;8.27;;
69569;SDS011;56781;42.292;23.146;2024-02-21T05:04:25;24.17;;;11.15;;
69569;SDS011;56781;42.292;23.146;2024-02-21T05:06:54;27.77;;;10.68;;
69569;SDS011;56781;42.292;23.146;2024-02-21T05:09:23;41.90;;;15.75;;
69569;SDS011;56781;42.292;23.146;2024-02-21T05:11:53;29.13;;;12.00;;
69569;SDS011;56781;42.292;23.146;2024-02-21T05:14:22;28.98;;;10.85;;
69569;SDS011;56781;42.292;23.146;2024-02-21T05:16:50;26.15;;;10.10;;
69569;SDS011;56781;42.292;23.146;2024-02-21T05:19:19;20.77;;;8.23;;
69569;SDS011;56781;42.292;23.146;2024-02-21T05:21:48;19.42;;;7.82;;
69569;SDS011;56781;42.292;23.146;2024-02-21T05:24:17;16.30;;;7.40;;
69569;SDS011;56781;42.292;23.146;2024-02-21T05:26:45;14.48;;;6.20;;
69569;SDS011;56781;42.292;23.146;2024-02-21T05:29:16;14.57;;;6.40;;
69569;SDS011;56781;42.292;23.146;2024-02-21T05:31:54;15.27;;;6.53;;
69569;SDS011;56781;42.292;23.146;2024-02-21T05:34:25;18.40;;;8.45;;
69569;SDS011;56781;42.292;23.146;2024-02-21T05:36:54;15.53;;;7.27;;
69569;SDS011;56781;42.292;23.146;2024-02-21T05:39:24;19.27;;;9.15;;
69569;SDS011;56781;42.292;23.146;2024-02-21T05:41:53;18.92;;;8.07;;
69569;SDS011;56781;42.292;23.146;2024-02-21T05:44:23;15.95;;;6.97;;
69569;SDS011;56781;42.292;23.146;2024-02-21T05:46:53;15.45;;;6.78;;
69569;SDS011;56781;42.292;23.146;2024-02-21T05:49:22;14.13;;;6.40;;
69569;SDS011;56781;42.292;23.146;2024-02-21T05:51:51;15.70;;;6.60;;
69569;SDS011;56781;42.292;23.146;2024-02-21T05:54:20;14.48;;;6.53;;
69569;SDS011;56781;42.292;23.146;2024-02-21T05:56:48;28.05;;;10.98;;
69569;SDS011;56781;42.292;23.146;2024-02-21T05:59:18;250.93;;;62.70;;
69569;SDS011;56781;42.292;23.146;2024-02-21T06:01:56;87.60;;;30.60;;
69569;SDS011;56781;42.292;23.146;2024-02-21T06:04:26;60.65;;;20.05;;
69569;SDS011;56781;42.292;23.146;2024-02-21T06:06:55;46.88;;;16.33;;
69569;SDS011;56781;42.292;23.146;2024-02-21T06:09:23;28.10;;;12.82;;
69569;SDS011;56781;42.292;23.146;2024-02-21T06:11:52;37.35;;;17.92;;
69569;SDS011;56781;42.292;23.146;2024-02-21T06:14:21;29.07;;;13.07;;
69569;SDS011;56781;42.292;23.146;2024-02-21T06:16:49;23.17;;;10.75;;
69569;SDS011;56781;42.292;23.146;2024-02-21T06:19:20;17.27;;;7.97;;
69569;SDS011;56781;42.292;23.146;2024-02-21T06:21:48;18.70;;;8.27;;
69569;SDS011;56781;42.292;23.146;2024-02-21T06:24:17;26.90;;;12.43;;
69569;SDS011;56781;42.292;23.146;2024-02-21T06:26:45;30.57;;;13.17;;
69569;SDS011;56781;42.292;23.146;2024-02-21T06:29:14;24.70;;;10.23;;
69569;SDS011;56781;42.292;23.146;2024-02-21T06:31:43;19.13;;;9.30;;
69569;SDS011;56781;42.292;23.146;2024-02-21T06:34:12;19.45;;;7.82;;
69569;SDS011;56781;42.292;23.146;2024-02-21T06:36:44;15.52;;;6.30;;
69569;SDS011;56781;42.292;23.146;2024-02-21T06:39:13;13.07;;;5.87;;
69569;SDS011;56781;42.292;23.146;2024-02-21T06:41:42;24.27;;;9.55;;
69569;SDS011;56781;42.292;23.146;2024-02-21T06:44:11;41.58;;;17.63;;
69569;SDS011;56781;42.292;23.146;2024-02-21T06:46:39;28.80;;;12.75;;
69569;SDS011;56781;42.292;23.146;2024-02-21T06:49:08;44.10;;;21.17;;
69569;SDS011;56781;42.292;23.146;2024-02-21T06:51:44;26.83;;;11.67;;
69569;SDS011;56781;42.292;23.146;2024-02-21T06:54:13;40.17;;;21.10;;
69569;SDS011;56781;42.292;23.146;2024-02-21T06:56:41;24.60;;;12.70;;
69569;SDS011;56781;42.292;23.146;2024-02-21T06:59:10;35.08;;;16.27;;
69569;SDS011;56781;42.292;23.146;2024-02-21T07:01:44;37.05;;;14.15;;
69569;SDS011;56781;42.292;23.146;2024-02-21T07:04:13;31.40;;;12.63;;
69569;SDS011;56781;42.292;23.146;2024-02-21T07:06:44;30.67;;;11.95;;
69569;SDS011;56781;42.292;23.146;2024-02-21T07:09:13;33.70;;;15.20;;
69569;SDS011;56781;42.292;23.146;2024-02-21T07:11:42;25.40;;;10.70;;
69569;SDS011;56781;42.292;23.146;2024-02-21T07:14:10;38.92;;;15.93;;
69569;SDS011;56781;42.292;23.146;2024-02-21T07:16:39;32.80;;;18.20;;
69569;SDS011;56781;42.292;23.146;2024-02-21T07:19:08;27.80;;;13.85;;
69569;SDS011;56781;42.292;23.146;2024-02-21T07:21:36;24.52;;;12.00;;
69569;SDS011;56781;42.292;23.146;2024-02-21T07:24:09;20.98;;;11.30;;
69569;SDS011;56781;42.292;23.146;2024-02-21T07:26:40;20.77;;;10.15;;
69569;SDS011;56781;42.292;23.146;2024-02-21T07:29:10;25.50;;;12.73;;
69569;SDS011;56781;42.292;23.146;2024-02-21T07:31:40;29.98;;;13.95;;
69569;SDS011;56781;42.292;23.146;2024-02-21T07:34:09;22.35;;;10.52;;
69569;SDS011;56781;42.292;23.146;2024-02-21T07:36:38;16.58;;;8.15;;
69569;SDS011;56781;42.292;23.146;2024-02-21T07:39:06;17.08;;;8.55;;
69569;SDS011;56781;42.292;23.146;2024-02-21T07:41:36;17.33;;;8.33;;
69569;SDS011;56781;42.292;23.146;2024-02-21T07:44:05;15.95;;;7.18;;
69569;SDS011;56781;42.292;23.146;2024-02-21T07:46:34;14.73;;;7.50;;
69569;SDS011;56781;42.292;23.146;2024-02-21T07:49:03;14.23;;;7.40;;
69569;SDS011;56781;42.292;23.146;2024-02-21T07:51:31;16.13;;;7.63;;
69569;SDS011;56781;42.292;23.146;2024-02-21T07:54:00;19.90;;;9.43;;
69569;SDS011;56781;42.292;23.146;2024-02-21T07:56:31;17.20;;;8.10;;
69569;SDS011;56781;42.292;23.146;2024-02-21T07:59:00;19.20;;;8.57;;
69569;SDS011;56781;42.292;23.146;2024-02-21T08:01:28;15.85;;;7.97;;
69569;SDS011;56781;42.292;23.146;2024-02-21T08:03:57;15.27;;;7.38;;
69569;SDS011;56781;42.292;23.146;2024-02-21T08:06:26;15.30;;;6.50;;
69569;SDS011;56781;42.292;23.146;2024-02-21T08:08:55;14.73;;;6.45;;
69569;SDS011;56781;42.292;23.146;2024-02-21T08:11:24;15.40;;;7.10;;
69569;SDS011;56781;42.292;23.146;2024-02-21T08:13:54;16.30;;;7.00;;
69569;SDS011;56781;42.292;23.146;2024-02-21T08:16:24;20.60;;;8.57;;
69569;SDS011;56781;42.292;23.146;2024-02-21T08:18:52;18.73;;;8.20;;
69569;SDS011;56781;42.292;23.146;2024-02-21T08:21:21;16.27;;;7.75;;
69569;SDS011;56781;42.292;23.146;2024-02-21T08:23:49;49.20;;;25.52;;
69569;SDS011;56781;42.292;23.146;2024-02-21T08:26:19;55.85;;;15.52;;
69569;SDS011;56781;42.292;23.146;2024-02-21T08:28:48;41.28;;;12.18;;
69569;SDS011;56781;42.292;23.146;2024-02-21T08:31:22;16.93;;;8.33;;
69569;SDS011;56781;42.292;23.146;2024-02-21T08:33:51;17.17;;;8.02;;
69569;SDS011;56781;42.292;23.146;2024-02-21T08:36:20;23.92;;;7.75;;
69569;SDS011;56781;42.292;23.146;2024-02-21T08:38:48;14.45;;;6.75;;
69569;SDS011;56781;42.292;23.146;2024-02-21T08:41:17;16.05;;;7.13;;
69569;SDS011;56781;42.292;23.146;2024-02-21T08:43:45;49.70;;;11.97;;
69569;SDS011;56781;42.292;23.146;2024-02-21T08:46:14;86.20;;;16.23;;
69569;SDS011;56781;42.292;23.146;2024-02-21T08:48:44;58.05;;;13.85;;
69569;SDS011;56781;42.292;23.146;2024-02-21T08:51:13;14.98;;;6.05;;
69569;SDS011;56781;42.292;23.146;2024-02-21T08:53:42;12.98;;;6.25;;
69569;SDS011;56781;42.292;23.146;2024-02-21T08:56:11;13.17;;;6.13;;
69569;SDS011;56781;42.292;23.146;2024-02-21T08:58:40;12.85;;;6.05;;
69569;SDS011;56781;42.292;23.146;2024-02-21T09:01:09;16.10;;;6.43;;
69569;SDS011;56781;42.292;23.146;2024-02-21T09:03:38;12.15;;;6.22;;
69569;SDS011;56781;42.292;23.146;2024-02-21T09:06:11;16.77;;;7.00;;
69569;SDS011;56781;42.292;23.146;2024-02-21T09:08:40;10.73;;;4.60;;
69569;SDS011;56781;42.292;23.146;2024-02-21T09:11:09;12.20;;;5.45;;
69569;SDS011;56781;42.292;23.146;2024-02-21T09:13:38;12.32;;;5.45;;
69569;SDS011;56781;42.292;23.146;2024-02-21T09:16:07;10.45;;;4.15;;
69569;SDS011;56781;42.292;23.146;2024-02-21T09:18:36;9.55;;;3.75;;
69569;SDS011;56781;42.292;23.146;2024-02-21T09:21:04;8.23;;;3.07;;
69569;SDS011;56781;42.292;23.146;2024-02-21T09:23:35;11.73;;;5.40;;
69569;SDS011;56781;42.292;23.146;2024-02-21T09:26:03;13.10;;;6.43;;
69569;SDS011;56781;42.292;23.146;2024-02-21T09:28:32;14.27;;;6.60;;
69569;SDS011;56781;42.292;23.146;2024-02-21T09:31:01;13.48;;;6.25;;
69569;SDS011;56781;42.292;23.146;2024-02-21T09:33:29;12.83;;;6.43;;
69569;SDS011;56781;42.292;23.146;2024-02-21T09:35:59;21.73;;;9.00;;
69569;SDS011;56781;42.292;23.146;2024-02-21T09:38:27;14.45;;;6.60;;
69569;SDS011;56781;42.292;23.146;2024-02-21T09:40:58;12.20;;;5.93;;
69569;SDS011;56781;42.292;23.146;2024-02-21T09:43:28;16.85;;;8.23;;
69569;SDS011;56781;42.292;23.146;2024-02-21T09:45:57;17.10;;;7.87;;
69569;SDS011;56781;42.292;23.146;2024-02-21T09:48:30;15.45;;;7.55;;
69569;SDS011;56781;42.292;23.146;2024-02-21T09:51:09;13.90;;;7.55;;
69569;SDS011;56781;42.292;23.146;2024-02-21T09:53:39;12.48;;;6.30;;
69569;SDS011;56781;42.292;23.146;2024-02-21T09:56:25;74.57;;;20.30;;
69569;SDS011;56781;42.292;23.146;2024-02-21T09:58:54;18.87;;;8.17;;
69569;SDS011;56781;42.292;23.146;2024-02-21T10:01:23;39.22;;;12.15;;
69569;SDS011;56781;42.292;23.146;2024-02-21T10:04:00;26.30;;;9.40;;
69569;SDS011;56781;42.292;23.146;2024-02-21T10:06:31;25.30;;;9.40;;
69569;SDS011;56781;42.292;23.146;2024-02-21T10:09:00;20.58;;;8.18;;
69569;SDS011;56781;42.292;23.146;2024-02-21T10:11:30;18.17;;;9.10;;
69569;SDS011;56781;42.292;23.146;2024-02-21T10:14:04;30.70;;;10.75;;
69569;SDS011;56781;42.292;23.146;2024-02-21T10:16:33;14.75;;;6.38;;
69569;SDS011;56781;42.292;23.146;2024-02-21T10:19:04;11.13;;;5.53;;
69569;SDS011;56781;42.292;23.146;2024-02-21T10:21:33;10.80;;;5.50;;
69569;SDS011;56781;42.292;23.146;2024-02-21T10:24:01;10.73;;;4.43;;
69569;SDS011;56781;42.292;23.146;2024-02-21T10:26:32;9.82;;;5.22;;
69569;SDS011;56781;42.292;23.146;2024-02-21T10:29:01;40.30;;;11.45;;
69569;SDS011;56781;42.292;23.146;2024-02-21T10:31:30;12.00;;;5.50;;
69569;SDS011;56781;42.292;23.146;2024-02-21T10:33:58;10.63;;;5.32;;
69569;SDS011;56781;42.292;23.146;2024-02-21T10:36:30;13.57;;;6.60;;
69569;SDS011;56781;42.292;23.146;2024-02-21T10:38:58;14.15;;;7.82;;
69569;SDS011;56781;42.292;23.146;2024-02-21T10:41:27;19.13;;;8.68;;
69569;SDS011;56781;42.292;23.146;2024-02-21T10:43:58;17.88;;;8.65;;
69569;SDS011;56781;42.292;23.146;2024-02-21T10:46:32;12.27;;;6.65;;
69569;SDS011;56781;42.292;23.146;2024-02-21T10:49:07;20.93;;;7.07;;
69569;SDS011;56781;42.292;23.146;2024-02-21T10:51:40;17.33;;;6.95;;
69569;SDS011;56781;42.292;23.146;2024-02-21T10:54:13;10.90;;;5.50;;
69569;SDS011;56781;42.292;23.146;2024-02-21T10:56:53;8.98;;;4.05;;
69569;SDS011;56781;42.292;23.146;2024-02-21T10:59:26;10.50;;;5.22;;
69569;SDS011;56781;42.292;23.146;2024-02-21T11:01:57;8.80;;;4.90;;
69569;SDS011;56781;42.292;23.146;2024-02-21T11:04:26;8.95;;;4.55;;
69569;SDS011;56781;42.292;23.146;2024-02-21T11:06:57;9.82;;;4.32;;
69569;SDS011;56781;42.292;23.146;2024-02-21T11:09:30;10.80;;;5.00;;
69569;SDS011;56781;42.292;23.146;2024-02-21T11:12:01;12.20;;;5.20;;
69569;SDS011;56781;42.292;23.146;2024-02-21T11:14:33;8.07;;;4.30;;
69569;SDS011;56781;42.292;23.146;2024-02-21T11:17:14;8.98;;;4.57;;
69569;SDS011;56781;42.292;23.146;2024-02-21T11:19:43;10.48;;;5.55;;
69569;SDS011;56781;42.292;23.146;2024-02-21T11:22:15;9.57;;;5.10;;
69569;SDS011;56781;42.292;23.146;2024-02-21T11:24:45;13.35;;;6.07;;
69569;SDS011;56781;42.292;23.146;2024-02-21T11:27:14;10.40;;;4.70;;
69569;SDS011;56781;42.292;23.146;2024-02-21T11:29:45;9.80;;;4.65;;
69569;SDS011;56781;42.292;23.146;2024-02-21T11:32:16;9.75;;;4.70;;
69569;SDS011;56781;42.292;23.146;2024-02-21T11:34:56;11.65;;;5.10;;
69569;SDS011;56781;42.292;23.146;2024-02-21T11:37:29;11.52;;;5.78;;
69569;SDS011;56781;42.292;23.146;2024-02-21T11:40:00;16.37;;;9.23;;
69569;SDS011;56781;42.292;23.146;2024-02-21T11:42:30;10.55;;;5.75;;
69569;SDS011;56781;42.292;23.146;2024-02-21T11:45:00;11.35;;;6.10;;
69569;SDS011;56781;42.292;23.146;2024-02-21T11:47:29;10.77;;;5.05;;
69569;SDS011;56781;42.292;23.146;2024-02-21T11:49:57;12.02;;;5.78;;
69569;SDS011;56781;42.292;23.146;2024-02-21T11:55:06;9.10;;;4.72;;
69569;SDS011;56781;42.292;23.146;2024-02-21T11:57:36;11.43;;;5.70;;
69569;SDS011;56781;42.292;23.146;2024-02-21T12:00:14;10.32;;;5.70;;
69569;SDS011;56781;42.292;23.146;2024-02-21T12:02:43;11.43;;;5.33;;
69569;SDS011;56781;42.292;23.146;2024-02-21T12:05:12;11.00;;;5.40;;
69569;SDS011;56781;42.292;23.146;2024-02-21T12:07:41;9.65;;;5.10;;
69569;SDS011;56781;42.292;23.146;2024-02-21T12:10:12;9.05;;;4.90;;
69569;SDS011;56781;42.292;23.146;2024-02-21T12:12:41;13.63;;;6.50;;
69569;SDS011;56781;42.292;23.146;2024-02-21T12:15:12;10.30;;;5.60;;
69569;SDS011;56781;42.292;23.146;2024-02-21T12:17:40;10.13;;;4.90;;
69569;SDS011;56781;42.292;23.146;2024-02-21T12:20:09;9.77;;;5.10;;
69569;SDS011;56781;42.292;23.146;2024-02-21T12:22:39;13.88;;;7.18;;
69569;SDS011;56781;42.292;23.146;2024-02-21T12:27:56;11.57;;;6.53;;
69569;SDS011;56781;42.292;23.146;2024-02-21T12:30:26;10.75;;;3.92;;
69569;SDS011;56781;42.292;23.146;2024-02-21T12:32:56;8.52;;;4.50;;
69569;SDS011;56781;42.292;23.146;2024-02-21T12:35:26;10.32;;;5.03;;
69569;SDS011;56781;42.292;23.146;2024-02-21T12:37:55;8.18;;;4.80;;
69569;SDS011;56781;42.292;23.146;2024-02-21T12:40:23;9.23;;;4.80;;
69569;SDS011;56781;42.292;23.146;2024-02-21T12:42:53;8.45;;;4.63;;
69569;SDS011;56781;42.292;23.146;2024-02-21T12:45:22;8.13;;;4.40;;
69569;SDS011;56781;42.292;23.146;2024-02-21T12:47:50;8.90;;;4.30;;
69569;SDS011;56781;42.292;23.146;2024-02-21T12:50:18;8.20;;;3.90;;
69569;SDS011;56781;42.292;23.146;2024-02-21T12:52:49;9.23;;;4.63;;
69569;SDS011;56781;42.292;23.146;2024-02-21T12:55:18;15.35;;;6.90;;
69569;SDS011;56781;42.292;23.146;2024-02-21T12:57:46;9.52;;;4.82;;
69569;SDS011;56781;42.292;23.146;2024-02-21T13:00:17;7.70;;;3.63;;
69569;SDS011;56781;42.292;23.146;2024-02-21T13:02:47;7.57;;;3.97;;
69569;SDS011;56781;42.292;23.146;2024-02-21T13:05:16;7.43;;;4.00;;
69569;SDS011;56781;42.292;23.146;2024-02-21T13:07:44;6.07;;;3.33;;
69569;SDS011;56781;42.292;23.146;2024-02-21T13:10:13;7.43;;;3.28;;
69569;SDS011;56781;42.292;23.146;2024-02-21T13:12:42;7.18;;;3.72;;
69569;SDS011;56781;42.292;23.146;2024-02-21T13:15:10;6.70;;;3.65;;
69569;SDS011;56781;42.292;23.146;2024-02-21T13:17:40;7.00;;;3.67;;
69569;SDS011;56781;42.292;23.146;2024-02-21T13:20:10;6.43;;;3.55;;
69569;SDS011;56781;42.292;23.146;2024-02-21T13:22:39;4.82;;;2.20;;
69569;SDS011;56781;42.292;23.146;2024-02-21T13:25:08;6.32;;;3.03;;
69569;SDS011;56781;42.292;23.146;2024-02-21T13:27:37;5.85;;;2.65;;
69569;SDS011;56781;42.292;23.146;2024-02-21T13:30:06;5.60;;;3.00;;
69569;SDS011;56781;42.292;23.146;2024-02-21T13:32:36;6.10;;;3.25;;
69569;SDS011;56781;42.292;23.146;2024-02-21T13:35:07;8.20;;;3.88;;
69569;SDS011;56781;42.292;23.146;2024-02-21T13:37:38;6.78;;;3.50;;
69569;SDS011;56781;42.292;23.146;2024-02-21T13:40:07;7.80;;;3.45;;
69569;SDS011;56781;42.292;23.146;2024-02-21T13:42:37;8.20;;;3.57;;
69569;SDS011;56781;42.292;23.146;2024-02-21T13:45:06;6.85;;;3.45;;
69569;SDS011;56781;42.292;23.146;2024-02-21T13:47:35;6.40;;;3.40;;
69569;SDS011;56781;42.292;23.146;2024-02-21T13:50:07;6.20;;;3.05;;
69569;SDS011;56781;42.292;23.146;2024-02-21T13:52:38;6.50;;;2.78;;
69569;SDS011;56781;42.292;23.146;2024-02-21T13:55:06;7.43;;;3.07;;
69569;SDS011;56781;42.292;23.146;2024-02-21T13:57:36;7.00;;;3.33;;
69569;SDS011;56781;42.292;23.146;2024-02-21T14:00:05;7.63;;;3.50;;
69569;SDS011;56781;42.292;23.146;2024-02-21T14:02:37;7.40;;;3.30;;
69569;SDS011;56781;42.292;23.146;2024-02-21T14:05:08;8.15;;;3.67;;
69569;SDS011;56781;42.292;23.146;2024-02-21T14:07:37;6.13;;;2.93;;
69569;SDS011;56781;42.292;23.146;2024-02-21T14:10:07;8.43;;;3.47;;
69569;SDS011;56781;42.292;23.146;2024-02-21T14:12:37;6.63;;;3.33;;
69569;SDS011;56781;42.292;23.146;2024-02-21T14:15:07;7.22;;;3.53;;
69569;SDS011;56781;42.292;23.146;2024-02-21T14:17:36;7.22;;;3.20;;
69569;SDS011;56781;42.292;23.146;2024-02-21T14:20:08;7.53;;;3.23;;
69569;SDS011;56781;42.292;23.146;2024-02-21T14:22:41;7.95;;;3.70;;
69569;SDS011;56781;42.292;23.146;2024-02-21T14:25:10;6.95;;;3.30;;
69569;SDS011;56781;42.292;23.146;2024-02-21T14:27:39;7.32;;;3.60;;
69569;SDS011;56781;42.292;23.146;2024-02-21T14:30:07;7.47;;;3.90;;
69569;SDS011;56781;42.292;23.146;2024-02-21T14:32:37;6.50;;;3.10;;
69569;SDS011;56781;42.292;23.146;2024-02-21T14:35:10;6.72;;;3.40;;
69569;SDS011;56781;42.292;23.146;2024-02-21T14:37:38;5.88;;;2.80;;
69569;SDS011;56781;42.292;23.146;2024-02-21T14:40:07;7.18;;;3.15;;
69569;SDS011;56781;42.292;23.146;2024-02-21T14:42:37;7.03;;;3.20;;